sensor_id;sensor_type;location;lat;lon;timestamp;P1;durP1;ratioP1;P2;durP2;ratioP2
6420;SDS011;3243;50.958;7.012;2023-11-19T00:00:08;6.03;;;3.27;;
6420;SDS011;3243;50.958;7.012;2023-11-19T00:02:39;3.87;;;2.73;;
6420;SDS011;3243;50.958;7.012;2023-11-19T00:05:07;3.40;;;2.40;;
6420;SDS011;3243;50.958;7.012;2023-11-19T00:07:35;4.17;;;2.50;;
6420;SDS011;3243;50.958;7.012;2023-11-19T00:10:03;3.27;;;2.20;;
6420;SDS011;3243;50.958;7.012;2023-11-19T00:12:37;2.87;;;2.20;;
6420;SDS011;3243;50.958;7.012;2023-11-19T00:15:06;3.27;;;1.97;;
6420;SDS011;3243;50.958;7.012;2023-11-19T00:17:38;3.87;;;2.20;;
6420;SDS011;3243;50.958;7.012;2023-11-19T00:20:07;2.07;;;1.83;;
6420;SDS011;3243;50.958;7.012;2023-11-19T00:22:34;3.07;;;2.03;;
6420;SDS011;3243;50.958;7.012;2023-11-19T00:25:01;1.70;;;1.60;;
6420;SDS011;3243;50.958;7.012;2023-11-19T00:27:28;2.13;;;1.70;;
6420;SDS011;3243;50.958;7.012;2023-11-19T00:29:55;1.63;;;1.50;;
6420;SDS011;3243;50.958;7.012;2023-11-19T00:32:23;2.10;;;1.90;;
6420;SDS011;3243;50.958;7.012;2023-11-19T00:34:50;2.57;;;1.70;;
6420;SDS011;3243;50.958;7.012;2023-11-19T00:37:16;2.97;;;1.70;;
6420;SDS011;3243;50.958;7.012;2023-11-19T00:39:43;2.07;;;1.87;;
6420;SDS011;3243;50.958;7.012;2023-11-19T00:42:12;1.97;;;1.80;;
6420;SDS011;3243;50.958;7.012;2023-11-19T00:44:40;2.83;;;1.50;;
6420;SDS011;3243;50.958;7.012;2023-11-19T00:47:16;2.57;;;1.70;;
6420;SDS011;3243;50.958;7.012;2023-11-19T00:49:49;1.60;;;1.50;;
6420;SDS011;3243;50.958;7.012;2023-11-19T00:52:16;2.47;;;1.53;;
6420;SDS011;3243;50.958;7.012;2023-11-19T00:54:44;1.50;;;1.40;;
6420;SDS011;3243;50.958;7.012;2023-11-19T00:57:11;1.40;;;1.30;;
6420;SDS011;3243;50.958;7.012;2023-11-19T00:59:37;1.40;;;1.20;;
6420;SDS011;3243;50.958;7.012;2023-11-19T01:02:05;1.53;;;1.43;;
6420;SDS011;3243;50.958;7.012;2023-11-19T01:04:33;1.50;;;1.40;;
6420;SDS011;3243;50.958;7.012;2023-11-19T01:07:02;1.70;;;1.40;;
6420;SDS011;3243;50.958;7.012;2023-11-19T01:09:41;1.50;;;1.40;;
6420;SDS011;3243;50.958;7.012;2023-11-19T01:12:08;1.50;;;1.40;;
6420;SDS011;3243;50.958;7.012;2023-11-19T01:14:36;3.10;;;1.93;;
6420;SDS011;3243;50.958;7.012;2023-11-19T01:17:03;1.70;;;1.60;;
6420;SDS011;3243;50.958;7.012;2023-11-19T01:19:31;2.20;;;1.87;;
6420;SDS011;3243;50.958;7.012;2023-11-19T01:21:58;1.60;;;1.50;;
6420;SDS011;3243;50.958;7.012;2023-11-19T01:24:24;2.00;;;1.40;;
6420;SDS011;3243;50.958;7.012;2023-11-19T01:26:54;2.07;;;1.80;;
6420;SDS011;3243;50.958;7.012;2023-11-19T01:29:23;3.73;;;1.57;;
6420;SDS011;3243;50.958;7.012;2023-11-19T01:31:50;3.13;;;1.50;;
6420;SDS011;3243;50.958;7.012;2023-11-19T01:34:18;2.80;;;1.80;;
6420;SDS011;3243;50.958;7.012;2023-11-19T01:36:46;2.70;;;1.80;;
6420;SDS011;3243;50.958;7.012;2023-11-19T01:39:15;2.07;;;1.83;;
6420;SDS011;3243;50.958;7.012;2023-11-19T01:41:46;4.10;;;1.90;;
6420;SDS011;3243;50.958;7.012;2023-11-19T01:44:13;3.47;;;2.00;;
6420;SDS011;3243;50.958;7.012;2023-11-19T01:46:40;2.37;;;1.77;;
6420;SDS011;3243;50.958;7.012;2023-11-19T01:49:08;2.07;;;1.60;;
6420;SDS011;3243;50.958;7.012;2023-11-19T01:51:35;4.50;;;1.53;;
6420;SDS011;3243;50.958;7.012;2023-11-19T01:54:02;2.10;;;1.43;;
6420;SDS011;3243;50.958;7.012;2023-11-19T01:56:29;2.10;;;1.60;;
6420;SDS011;3243;50.958;7.012;2023-11-19T01:58:57;3.10;;;1.53;;
6420;SDS011;3243;50.958;7.012;2023-11-19T02:01:25;3.13;;;1.80;;
6420;SDS011;3243;50.958;7.012;2023-11-19T02:03:52;3.07;;;1.80;;
6420;SDS011;3243;50.958;7.012;2023-11-19T02:06:19;2.13;;;1.93;;
6420;SDS011;3243;50.958;7.012;2023-11-19T02:08:46;3.10;;;2.30;;
6420;SDS011;3243;50.958;7.012;2023-11-19T02:11:13;3.03;;;2.40;;
6420;SDS011;3243;50.958;7.012;2023-11-19T02:13:40;4.17;;;1.90;;
6420;SDS011;3243;50.958;7.012;2023-11-19T02:16:08;4.40;;;2.90;;
6420;SDS011;3243;50.958;7.012;2023-11-19T02:18:38;7.70;;;2.90;;
6420;SDS011;3243;50.958;7.012;2023-11-19T02:21:05;3.97;;;2.60;;
6420;SDS011;3243;50.958;7.012;2023-11-19T02:23:32;2.87;;;2.17;;
6420;SDS011;3243;50.958;7.012;2023-11-19T02:28:27;7.40;;;4.03;;
6420;SDS011;3243;50.958;7.012;2023-11-19T02:30:54;3.67;;;2.63;;
6420;SDS011;3243;50.958;7.012;2023-11-19T02:33:21;4.53;;;2.17;;
6420;SDS011;3243;50.958;7.012;2023-11-19T02:35:49;9.00;;;3.23;;
6420;SDS011;3243;50.958;7.012;2023-11-19T02:38:16;8.07;;;3.90;;
6420;SDS011;3243;50.958;7.012;2023-11-19T02:40:43;7.03;;;3.23;;
6420;SDS011;3243;50.958;7.012;2023-11-19T02:43:09;7.90;;;3.90;;
6420;SDS011;3243;50.958;7.012;2023-11-19T02:45:37;5.63;;;3.63;;
6420;SDS011;3243;50.958;7.012;2023-11-19T02:48:03;6.50;;;2.87;;
6420;SDS011;3243;50.958;7.012;2023-11-19T02:50:32;6.53;;;3.40;;
6420;SDS011;3243;50.958;7.012;2023-11-19T02:52:59;5.27;;;2.40;;
6420;SDS011;3243;50.958;7.012;2023-11-19T02:55:27;5.13;;;2.50;;
6420;SDS011;3243;50.958;7.012;2023-11-19T02:57:57;7.67;;;3.00;;
6420;SDS011;3243;50.958;7.012;2023-11-19T03:00:25;6.63;;;3.00;;
6420;SDS011;3243;50.958;7.012;2023-11-19T03:03:02;7.00;;;2.97;;
6420;SDS011;3243;50.958;7.012;2023-11-19T03:05:45;6.03;;;2.80;;
6420;SDS011;3243;50.958;7.012;2023-11-19T03:08:15;7.93;;;2.90;;
6420;SDS011;3243;50.958;7.012;2023-11-19T03:10:45;7.10;;;2.20;;
6420;SDS011;3243;50.958;7.012;2023-11-19T03:13:12;6.37;;;2.50;;
6420;SDS011;3243;50.958;7.012;2023-11-19T03:15:45;3.23;;;2.20;;
6420;SDS011;3243;50.958;7.012;2023-11-19T03:18:13;9.27;;;2.70;;
6420;SDS011;3243;50.958;7.012;2023-11-19T03:20:40;9.17;;;2.67;;
6420;SDS011;3243;50.958;7.012;2023-11-19T03:23:07;6.73;;;2.50;;
6420;SDS011;3243;50.958;7.012;2023-11-19T03:25:34;8.83;;;2.97;;
6420;SDS011;3243;50.958;7.012;2023-11-19T03:28:02;8.23;;;2.43;;
6420;SDS011;3243;50.958;7.012;2023-11-19T03:30:30;8.30;;;3.60;;
6420;SDS011;3243;50.958;7.012;2023-11-19T03:33:00;7.93;;;2.43;;
6420;SDS011;3243;50.958;7.012;2023-11-19T03:35:28;11.60;;;3.17;;
6420;SDS011;3243;50.958;7.012;2023-11-19T03:37:56;6.20;;;2.20;;
6420;SDS011;3243;50.958;7.012;2023-11-19T03:40:23;9.90;;;2.83;;
6420;SDS011;3243;50.958;7.012;2023-11-19T03:42:51;10.70;;;2.77;;
6420;SDS011;3243;50.958;7.012;2023-11-19T03:45:18;12.87;;;2.70;;
6420;SDS011;3243;50.958;7.012;2023-11-19T03:47:45;6.90;;;2.50;;
6420;SDS011;3243;50.958;7.012;2023-11-19T03:50:12;11.70;;;3.40;;
6420;SDS011;3243;50.958;7.012;2023-11-19T03:52:39;6.70;;;2.40;;
6420;SDS011;3243;50.958;7.012;2023-11-19T03:55:08;10.10;;;2.40;;
6420;SDS011;3243;50.958;7.012;2023-11-19T03:57:36;12.20;;;2.97;;
6420;SDS011;3243;50.958;7.012;2023-11-19T04:00:03;7.37;;;2.40;;
6420;SDS011;3243;50.958;7.012;2023-11-19T04:02:37;10.70;;;3.43;;
6420;SDS011;3243;50.958;7.012;2023-11-19T04:05:04;10.13;;;3.10;;
6420;SDS011;3243;50.958;7.012;2023-11-19T04:07:31;11.73;;;2.87;;
6420;SDS011;3243;50.958;7.012;2023-11-19T04:09:58;11.07;;;2.80;;
6420;SDS011;3243;50.958;7.012;2023-11-19T04:12:26;10.30;;;2.73;;
6420;SDS011;3243;50.958;7.012;2023-11-19T04:14:52;10.97;;;2.83;;
6420;SDS011;3243;50.958;7.012;2023-11-19T04:17:22;7.20;;;2.60;;
6420;SDS011;3243;50.958;7.012;2023-11-19T04:19:50;9.20;;;3.07;;
6420;SDS011;3243;50.958;7.012;2023-11-19T04:22:16;5.60;;;2.67;;
6420;SDS011;3243;50.958;7.012;2023-11-19T04:24:44;7.80;;;2.87;;
6420;SDS011;3243;50.958;7.012;2023-11-19T04:27:12;7.53;;;2.60;;
6420;SDS011;3243;50.958;7.012;2023-11-19T04:29:39;8.57;;;2.60;;
6420;SDS011;3243;50.958;7.012;2023-11-19T04:32:06;13.77;;;2.90;;
6420;SDS011;3243;50.958;7.012;2023-11-19T04:34:34;10.47;;;2.50;;
6420;SDS011;3243;50.958;7.012;2023-11-19T04:37:02;8.97;;;3.00;;
6420;SDS011;3243;50.958;7.012;2023-11-19T04:39:33;7.90;;;2.67;;
6420;SDS011;3243;50.958;7.012;2023-11-19T04:42:00;13.90;;;2.90;;
6420;SDS011;3243;50.958;7.012;2023-11-19T04:44:27;8.13;;;2.40;;
6420;SDS011;3243;50.958;7.012;2023-11-19T04:46:55;7.23;;;2.90;;
6420;SDS011;3243;50.958;7.012;2023-11-19T04:49:22;10.70;;;2.40;;
6420;SDS011;3243;50.958;7.012;2023-11-19T04:51:49;11.20;;;2.67;;
6420;SDS011;3243;50.958;7.012;2023-11-19T04:54:16;10.20;;;2.50;;
6420;SDS011;3243;50.958;7.012;2023-11-19T04:56:45;9.17;;;2.73;;
6420;SDS011;3243;50.958;7.012;2023-11-19T04:59:13;10.87;;;3.23;;
6420;SDS011;3243;50.958;7.012;2023-11-19T05:01:40;11.70;;;2.87;;
6420;SDS011;3243;50.958;7.012;2023-11-19T05:04:07;19.50;;;2.90;;
6420;SDS011;3243;50.958;7.012;2023-11-19T05:06:35;15.63;;;3.00;;
6420;SDS011;3243;50.958;7.012;2023-11-19T05:09:03;14.30;;;3.00;;
6420;SDS011;3243;50.958;7.012;2023-11-19T05:11:33;12.23;;;3.07;;
6420;SDS011;3243;50.958;7.012;2023-11-19T05:14:02;13.97;;;2.63;;
6420;SDS011;3243;50.958;7.012;2023-11-19T05:16:30;12.77;;;3.13;;
6420;SDS011;3243;50.958;7.012;2023-11-19T05:18:58;11.73;;;2.27;;
6420;SDS011;3243;50.958;7.012;2023-11-19T05:21:25;11.33;;;2.97;;
6420;SDS011;3243;50.958;7.012;2023-11-19T05:23:51;9.83;;;2.67;;
6420;SDS011;3243;50.958;7.012;2023-11-19T05:26:19;16.17;;;3.50;;
6420;SDS011;3243;50.958;7.012;2023-11-19T05:28:47;15.43;;;2.80;;
6420;SDS011;3243;50.958;7.012;2023-11-19T05:31:15;13.23;;;2.80;;
6420;SDS011;3243;50.958;7.012;2023-11-19T05:33:43;12.57;;;2.77;;
6420;SDS011;3243;50.958;7.012;2023-11-19T05:36:10;15.73;;;2.60;;
6420;SDS011;3243;50.958;7.012;2023-11-19T05:38:39;14.27;;;3.20;;
6420;SDS011;3243;50.958;7.012;2023-11-19T05:41:06;13.40;;;2.80;;
6420;SDS011;3243;50.958;7.012;2023-11-19T05:43:33;11.43;;;3.37;;
6420;SDS011;3243;50.958;7.012;2023-11-19T05:46:00;10.97;;;2.60;;
6420;SDS011;3243;50.958;7.012;2023-11-19T05:48:28;13.33;;;2.93;;
6420;SDS011;3243;50.958;7.012;2023-11-19T05:50:55;12.43;;;3.10;;
6420;SDS011;3243;50.958;7.012;2023-11-19T05:53:22;15.40;;;3.13;;
6420;SDS011;3243;50.958;7.012;2023-11-19T05:55:49;11.27;;;2.67;;
6420;SDS011;3243;50.958;7.012;2023-11-19T05:58:25;9.60;;;2.70;;
6420;SDS011;3243;50.958;7.012;2023-11-19T06:00:55;15.70;;;2.80;;
6420;SDS011;3243;50.958;7.012;2023-11-19T06:03:22;19.10;;;3.00;;
6420;SDS011;3243;50.958;7.012;2023-11-19T06:05:49;13.50;;;3.07;;
6420;SDS011;3243;50.958;7.012;2023-11-19T06:08:16;15.17;;;3.10;;
6420;SDS011;3243;50.958;7.012;2023-11-19T06:10:43;11.80;;;2.97;;
6420;SDS011;3243;50.958;7.012;2023-11-19T06:13:13;18.10;;;3.30;;
6420;SDS011;3243;50.958;7.012;2023-11-19T06:15:42;15.67;;;3.53;;
6420;SDS011;3243;50.958;7.012;2023-11-19T06:18:09;16.33;;;4.03;;
6420;SDS011;3243;50.958;7.012;2023-11-19T06:20:38;19.67;;;3.30;;
6420;SDS011;3243;50.958;7.012;2023-11-19T06:23:08;20.63;;;3.20;;
6420;SDS011;3243;50.958;7.012;2023-11-19T06:25:34;14.90;;;3.03;;
6420;SDS011;3243;50.958;7.012;2023-11-19T06:28:02;15.07;;;3.60;;
6420;SDS011;3243;50.958;7.012;2023-11-19T06:30:29;20.87;;;3.93;;
6420;SDS011;3243;50.958;7.012;2023-11-19T06:32:59;19.07;;;3.30;;
6420;SDS011;3243;50.958;7.012;2023-11-19T06:35:26;16.30;;;3.53;;
6420;SDS011;3243;50.958;7.012;2023-11-19T06:38:02;16.37;;;3.57;;
6420;SDS011;3243;50.958;7.012;2023-11-19T06:40:31;18.67;;;3.53;;
6420;SDS011;3243;50.958;7.012;2023-11-19T06:42:59;15.40;;;3.43;;
6420;SDS011;3243;50.958;7.012;2023-11-19T06:45:26;16.63;;;3.10;;
6420;SDS011;3243;50.958;7.012;2023-11-19T06:47:53;17.47;;;3.60;;
6420;SDS011;3243;50.958;7.012;2023-11-19T06:50:20;14.00;;;3.57;;
6420;SDS011;3243;50.958;7.012;2023-11-19T06:52:47;18.90;;;3.90;;
6420;SDS011;3243;50.958;7.012;2023-11-19T06:55:14;17.17;;;3.93;;
6420;SDS011;3243;50.958;7.012;2023-11-19T06:57:42;29.17;;;9.37;;
6420;SDS011;3243;50.958;7.012;2023-11-19T07:00:09;31.60;;;11.03;;
6420;SDS011;3243;50.958;7.012;2023-11-19T07:02:37;24.57;;;7.27;;
6420;SDS011;3243;50.958;7.012;2023-11-19T07:05:04;24.23;;;6.03;;
6420;SDS011;3243;50.958;7.012;2023-11-19T07:07:32;17.07;;;4.10;;
6420;SDS011;3243;50.958;7.012;2023-11-19T07:09:59;15.87;;;3.63;;
6420;SDS011;3243;50.958;7.012;2023-11-19T07:12:25;17.30;;;4.40;;
6420;SDS011;3243;50.958;7.012;2023-11-19T07:14:53;15.17;;;4.33;;
6420;SDS011;3243;50.958;7.012;2023-11-19T07:17:21;17.83;;;3.97;;
6420;SDS011;3243;50.958;7.012;2023-11-19T07:19:50;14.17;;;3.70;;
6420;SDS011;3243;50.958;7.012;2023-11-19T07:22:17;17.80;;;4.27;;
6420;SDS011;3243;50.958;7.012;2023-11-19T07:24:44;26.73;;;6.83;;
6420;SDS011;3243;50.958;7.012;2023-11-19T07:27:11;26.93;;;6.27;;
6420;SDS011;3243;50.958;7.012;2023-11-19T07:29:39;20.60;;;4.37;;
6420;SDS011;3243;50.958;7.012;2023-11-19T07:32:07;22.07;;;6.87;;
6420;SDS011;3243;50.958;7.012;2023-11-19T07:34:34;22.20;;;6.20;;
6420;SDS011;3243;50.958;7.012;2023-11-19T07:37:01;52.23;;;22.43;;
6420;SDS011;3243;50.958;7.012;2023-11-19T07:39:29;23.10;;;7.20;;
6420;SDS011;3243;50.958;7.012;2023-11-19T07:41:56;20.53;;;4.47;;
6420;SDS011;3243;50.958;7.012;2023-11-19T07:44:23;16.50;;;3.73;;
6420;SDS011;3243;50.958;7.012;2023-11-19T07:46:50;18.83;;;4.07;;
6420;SDS011;3243;50.958;7.012;2023-11-19T07:49:17;17.10;;;4.83;;
6420;SDS011;3243;50.958;7.012;2023-11-19T07:51:44;18.17;;;5.20;;
6420;SDS011;3243;50.958;7.012;2023-11-19T07:54:11;18.00;;;4.47;;
6420;SDS011;3243;50.958;7.012;2023-11-19T07:56:38;21.07;;;4.70;;
6420;SDS011;3243;50.958;7.012;2023-11-19T07:59:05;19.27;;;4.37;;
6420;SDS011;3243;50.958;7.012;2023-11-19T08:01:32;22.87;;;6.87;;
6420;SDS011;3243;50.958;7.012;2023-11-19T08:03:59;23.93;;;5.30;;
6420;SDS011;3243;50.958;7.012;2023-11-19T08:06:28;12.03;;;4.20;;
6420;SDS011;3243;50.958;7.012;2023-11-19T08:08:55;23.53;;;6.80;;
6420;SDS011;3243;50.958;7.012;2023-11-19T08:11:22;20.60;;;5.43;;
6420;SDS011;3243;50.958;7.012;2023-11-19T08:13:49;30.53;;;10.43;;
6420;SDS011;3243;50.958;7.012;2023-11-19T08:16:16;20.13;;;5.00;;
6420;SDS011;3243;50.958;7.012;2023-11-19T08:18:43;22.63;;;5.87;;
6420;SDS011;3243;50.958;7.012;2023-11-19T08:21:10;20.77;;;4.70;;
6420;SDS011;3243;50.958;7.012;2023-11-19T08:23:37;23.87;;;4.50;;
6420;SDS011;3243;50.958;7.012;2023-11-19T08:26:05;22.03;;;4.70;;
6420;SDS011;3243;50.958;7.012;2023-11-19T08:28:32;25.00;;;5.87;;
6420;SDS011;3243;50.958;7.012;2023-11-19T08:31:01;22.27;;;5.30;;
6420;SDS011;3243;50.958;7.012;2023-11-19T08:33:31;19.20;;;4.97;;
6420;SDS011;3243;50.958;7.012;2023-11-19T08:35:58;20.93;;;5.57;;
6420;SDS011;3243;50.958;7.012;2023-11-19T08:38:25;15.20;;;4.47;;
6420;SDS011;3243;50.958;7.012;2023-11-19T08:40:55;14.77;;;3.97;;
6420;SDS011;3243;50.958;7.012;2023-11-19T08:43:26;19.17;;;3.80;;
6420;SDS011;3243;50.958;7.012;2023-11-19T08:45:53;15.97;;;3.23;;
6420;SDS011;3243;50.958;7.012;2023-11-19T08:48:22;14.83;;;3.57;;
6420;SDS011;3243;50.958;7.012;2023-11-19T08:50:49;17.30;;;4.20;;
6420;SDS011;3243;50.958;7.012;2023-11-19T08:53:17;16.97;;;4.10;;
6420;SDS011;3243;50.958;7.012;2023-11-19T08:55:44;16.13;;;3.33;;
6420;SDS011;3243;50.958;7.012;2023-11-19T08:58:10;18.77;;;4.00;;
6420;SDS011;3243;50.958;7.012;2023-11-19T09:00:38;15.27;;;3.43;;
6420;SDS011;3243;50.958;7.012;2023-11-19T09:03:04;15.10;;;3.17;;
6420;SDS011;3243;50.958;7.012;2023-11-19T09:05:32;20.73;;;4.63;;
6420;SDS011;3243;50.958;7.012;2023-11-19T09:07:59;15.33;;;3.60;;
6420;SDS011;3243;50.958;7.012;2023-11-19T09:10:26;16.53;;;4.13;;
6420;SDS011;3243;50.958;7.012;2023-11-19T09:12:55;19.93;;;3.57;;
6420;SDS011;3243;50.958;7.012;2023-11-19T09:15:24;19.40;;;3.63;;
6420;SDS011;3243;50.958;7.012;2023-11-19T09:17:51;17.40;;;3.80;;
6420;SDS011;3243;50.958;7.012;2023-11-19T09:20:18;18.47;;;3.93;;
6420;SDS011;3243;50.958;7.012;2023-11-19T09:25:13;11.90;;;2.77;;
6420;SDS011;3243;50.958;7.012;2023-11-19T09:27:43;15.37;;;4.03;;
6420;SDS011;3243;50.958;7.012;2023-11-19T09:30:11;19.73;;;4.00;;
6420;SDS011;3243;50.958;7.012;2023-11-19T09:32:39;15.90;;;3.93;;
6420;SDS011;3243;50.958;7.012;2023-11-19T09:35:07;21.57;;;4.40;;
6420;SDS011;3243;50.958;7.012;2023-11-19T09:37:34;14.03;;;3.50;;
6420;SDS011;3243;50.958;7.012;2023-11-19T09:40:01;14.20;;;3.23;;
6420;SDS011;3243;50.958;7.012;2023-11-19T09:42:28;15.50;;;3.77;;
6420;SDS011;3243;50.958;7.012;2023-11-19T09:44:57;15.00;;;3.50;;
6420;SDS011;3243;50.958;7.012;2023-11-19T09:47:25;21.10;;;3.87;;
6420;SDS011;3243;50.958;7.012;2023-11-19T09:49:54;16.60;;;4.23;;
6420;SDS011;3243;50.958;7.012;2023-11-19T09:52:24;17.60;;;3.63;;
6420;SDS011;3243;50.958;7.012;2023-11-19T09:54:51;16.47;;;3.57;;
6420;SDS011;3243;50.958;7.012;2023-11-19T09:57:18;24.70;;;4.60;;
6420;SDS011;3243;50.958;7.012;2023-11-19T09:59:45;17.07;;;3.47;;
6420;SDS011;3243;50.958;7.012;2023-11-19T10:02:14;17.90;;;3.70;;
6420;SDS011;3243;50.958;7.012;2023-11-19T10:04:42;17.27;;;4.00;;
6420;SDS011;3243;50.958;7.012;2023-11-19T10:07:10;15.37;;;4.30;;
6420;SDS011;3243;50.958;7.012;2023-11-19T10:09:37;13.90;;;3.70;;
6420;SDS011;3243;50.958;7.012;2023-11-19T10:12:04;19.23;;;3.70;;
6420;SDS011;3243;50.958;7.012;2023-11-19T10:14:31;17.33;;;3.73;;
6420;SDS011;3243;50.958;7.012;2023-11-19T10:17:01;21.83;;;4.17;;
6420;SDS011;3243;50.958;7.012;2023-11-19T10:19:31;18.33;;;4.00;;
6420;SDS011;3243;50.958;7.012;2023-11-19T10:22:01;15.47;;;3.73;;
6420;SDS011;3243;50.958;7.012;2023-11-19T10:24:33;15.80;;;3.47;;
6420;SDS011;3243;50.958;7.012;2023-11-19T10:27:06;17.53;;;4.20;;
6420;SDS011;3243;50.958;7.012;2023-11-19T10:29:38;13.83;;;3.43;;
6420;SDS011;3243;50.958;7.012;2023-11-19T10:32:05;16.40;;;3.80;;
6420;SDS011;3243;50.958;7.012;2023-11-19T10:34:52;20.07;;;4.27;;
6420;SDS011;3243;50.958;7.012;2023-11-19T10:37:28;16.17;;;3.90;;
6420;SDS011;3243;50.958;7.012;2023-11-19T10:39:59;17.73;;;4.20;;
6420;SDS011;3243;50.958;7.012;2023-11-19T10:42:26;14.83;;;3.37;;
6420;SDS011;3243;50.958;7.012;2023-11-19T10:44:53;19.27;;;3.93;;
6420;SDS011;3243;50.958;7.012;2023-11-19T10:47:20;18.70;;;3.63;;
6420;SDS011;3243;50.958;7.012;2023-11-19T10:49:52;15.50;;;3.40;;
6420;SDS011;3243;50.958;7.012;2023-11-19T10:52:19;17.17;;;3.53;;
6420;SDS011;3243;50.958;7.012;2023-11-19T10:54:49;16.60;;;4.33;;
6420;SDS011;3243;50.958;7.012;2023-11-19T10:57:20;16.37;;;3.60;;
6420;SDS011;3243;50.958;7.012;2023-11-19T10:59:48;14.77;;;3.13;;
6420;SDS011;3243;50.958;7.012;2023-11-19T11:02:19;20.30;;;3.87;;
6420;SDS011;3243;50.958;7.012;2023-11-19T11:04:50;19.40;;;3.90;;
6420;SDS011;3243;50.958;7.012;2023-11-19T11:07:19;10.77;;;3.10;;
6420;SDS011;3243;50.958;7.012;2023-11-19T11:10:01;14.03;;;3.53;;
6420;SDS011;3243;50.958;7.012;2023-11-19T11:12:32;13.87;;;3.30;;
6420;SDS011;3243;50.958;7.012;2023-11-19T11:15:03;14.20;;;3.43;;
6420;SDS011;3243;50.958;7.012;2023-11-19T11:17:32;16.20;;;3.27;;
6420;SDS011;3243;50.958;7.012;2023-11-19T11:20:00;24.60;;;5.20;;
6420;SDS011;3243;50.958;7.012;2023-11-19T11:22:28;18.10;;;5.77;;
6420;SDS011;3243;50.958;7.012;2023-11-19T11:28:00;17.27;;;3.47;;
6420;SDS011;3243;50.958;7.012;2023-11-19T11:30:55;15.60;;;3.50;;
6420;SDS011;3243;50.958;7.012;2023-11-19T11:36:25;23.17;;;3.90;;
6420;SDS011;3243;50.958;7.012;2023-11-19T11:38:53;16.90;;;3.90;;
6420;SDS011;3243;50.958;7.012;2023-11-19T11:41:24;14.27;;;3.80;;
6420;SDS011;3243;50.958;7.012;2023-11-19T11:43:55;15.77;;;4.17;;
6420;SDS011;3243;50.958;7.012;2023-11-19T11:57:03;17.20;;;3.53;;
6420;SDS011;3243;50.958;7.012;2023-11-19T12:02:08;14.33;;;4.17;;
6420;SDS011;3243;50.958;7.012;2023-11-19T12:04:36;13.57;;;3.27;;
6420;SDS011;3243;50.958;7.012;2023-11-19T12:09:53;14.27;;;3.40;;
6420;SDS011;3243;50.958;7.012;2023-11-19T12:12:34;15.00;;;4.10;;
6420;SDS011;3243;50.958;7.012;2023-11-19T12:15:02;12.60;;;3.30;;
6420;SDS011;3243;50.958;7.012;2023-11-19T12:17:48;14.13;;;3.30;;
6420;SDS011;3243;50.958;7.012;2023-11-19T12:20:17;10.87;;;3.00;;
6420;SDS011;3243;50.958;7.012;2023-11-19T12:22:48;13.93;;;3.47;;
6420;SDS011;3243;50.958;7.012;2023-11-19T12:25:17;13.10;;;2.87;;
6420;SDS011;3243;50.958;7.012;2023-11-19T12:27:46;11.70;;;3.10;;
6420;SDS011;3243;50.958;7.012;2023-11-19T12:30:21;9.63;;;3.20;;
6420;SDS011;3243;50.958;7.012;2023-11-19T12:32:50;11.70;;;3.13;;
6420;SDS011;3243;50.958;7.012;2023-11-19T12:35:20;15.10;;;3.13;;
6420;SDS011;3243;50.958;7.012;2023-11-19T12:37:48;14.93;;;3.30;;
6420;SDS011;3243;50.958;7.012;2023-11-19T12:42:44;14.77;;;4.40;;
6420;SDS011;3243;50.958;7.012;2023-11-19T12:45:11;13.50;;;3.23;;
6420;SDS011;3243;50.958;7.012;2023-11-19T12:47:39;14.60;;;3.43;;
6420;SDS011;3243;50.958;7.012;2023-11-19T12:50:07;14.10;;;2.90;;
6420;SDS011;3243;50.958;7.012;2023-11-19T12:52:35;12.17;;;3.03;;
6420;SDS011;3243;50.958;7.012;2023-11-19T12:55:03;15.13;;;3.47;;
6420;SDS011;3243;50.958;7.012;2023-11-19T12:57:37;10.87;;;2.70;;
6420;SDS011;3243;50.958;7.012;2023-11-19T13:00:05;13.10;;;3.67;;
6420;SDS011;3243;50.958;7.012;2023-11-19T13:02:45;14.70;;;3.53;;
6420;SDS011;3243;50.958;7.012;2023-11-19T13:05:47;13.93;;;3.77;;
6420;SDS011;3243;50.958;7.012;2023-11-19T13:08:08;12.97;;;3.30;;
6420;SDS011;3243;50.958;7.012;2023-11-19T13:10:51;10.77;;;2.80;;
6420;SDS011;3243;50.958;7.012;2023-11-19T13:13:21;14.23;;;3.10;;
6420;SDS011;3243;50.958;7.012;2023-11-19T13:15:48;14.73;;;2.97;;
6420;SDS011;3243;50.958;7.012;2023-11-19T13:18:16;11.13;;;3.70;;
6420;SDS011;3243;50.958;7.012;2023-11-19T13:20:43;12.53;;;3.67;;
6420;SDS011;3243;50.958;7.012;2023-11-19T13:23:10;11.50;;;2.97;;
6420;SDS011;3243;50.958;7.012;2023-11-19T13:25:38;12.70;;;3.27;;
6420;SDS011;3243;50.958;7.012;2023-11-19T13:28:05;10.53;;;3.03;;
6420;SDS011;3243;50.958;7.012;2023-11-19T13:30:32;14.40;;;3.23;;
6420;SDS011;3243;50.958;7.012;2023-11-19T13:32:59;8.93;;;2.93;;
6420;SDS011;3243;50.958;7.012;2023-11-19T13:35:27;12.87;;;3.10;;
6420;SDS011;3243;50.958;7.012;2023-11-19T13:37:54;12.87;;;3.80;;
6420;SDS011;3243;50.958;7.012;2023-11-19T13:40:21;13.23;;;3.43;;
6420;SDS011;3243;50.958;7.012;2023-11-19T13:42:51;16.63;;;3.67;;
6420;SDS011;3243;50.958;7.012;2023-11-19T13:45:18;16.40;;;4.30;;
6420;SDS011;3243;50.958;7.012;2023-11-19T13:47:46;14.03;;;4.10;;
6420;SDS011;3243;50.958;7.012;2023-11-19T13:50:15;12.73;;;4.20;;
6420;SDS011;3243;50.958;7.012;2023-11-19T13:52:43;19.67;;;8.60;;
6420;SDS011;3243;50.958;7.012;2023-11-19T13:55:12;17.20;;;4.77;;
6420;SDS011;3243;50.958;7.012;2023-11-19T13:57:40;13.37;;;3.80;;
6420;SDS011;3243;50.958;7.012;2023-11-19T14:00:09;22.03;;;8.13;;
6420;SDS011;3243;50.958;7.012;2023-11-19T14:02:40;16.17;;;4.20;;
6420;SDS011;3243;50.958;7.012;2023-11-19T14:05:08;13.97;;;4.37;;
6420;SDS011;3243;50.958;7.012;2023-11-19T14:07:35;11.47;;;3.53;;
6420;SDS011;3243;50.958;7.012;2023-11-19T14:10:03;16.97;;;3.97;;
6420;SDS011;3243;50.958;7.012;2023-11-19T14:12:32;16.67;;;4.23;;
6420;SDS011;3243;50.958;7.012;2023-11-19T14:14:59;16.03;;;4.50;;
6420;SDS011;3243;50.958;7.012;2023-11-19T14:17:26;14.67;;;3.40;;
6420;SDS011;3243;50.958;7.012;2023-11-19T14:19:54;10.83;;;3.37;;
6420;SDS011;3243;50.958;7.012;2023-11-19T14:22:21;18.23;;;3.63;;
6420;SDS011;3243;50.958;7.012;2023-11-19T14:24:49;15.67;;;3.40;;
6420;SDS011;3243;50.958;7.012;2023-11-19T14:27:16;13.63;;;3.40;;
6420;SDS011;3243;50.958;7.012;2023-11-19T14:29:44;13.93;;;3.20;;
6420;SDS011;3243;50.958;7.012;2023-11-19T14:32:14;12.80;;;3.50;;
6420;SDS011;3243;50.958;7.012;2023-11-19T14:34:41;15.70;;;3.83;;
6420;SDS011;3243;50.958;7.012;2023-11-19T14:37:10;11.67;;;3.00;;
6420;SDS011;3243;50.958;7.012;2023-11-19T14:39:37;14.07;;;3.30;;
6420;SDS011;3243;50.958;7.012;2023-11-19T14:42:04;15.67;;;3.40;;
6420;SDS011;3243;50.958;7.012;2023-11-19T14:44:32;14.43;;;3.17;;
6420;SDS011;3243;50.958;7.012;2023-11-19T14:47:00;15.47;;;3.10;;
6420;SDS011;3243;50.958;7.012;2023-11-19T14:49:28;9.57;;;2.90;;
6420;SDS011;3243;50.958;7.012;2023-11-19T14:51:55;17.57;;;3.23;;
6420;SDS011;3243;50.958;7.012;2023-11-19T14:54:42;14.30;;;3.43;;
6420;SDS011;3243;50.958;7.012;2023-11-19T14:57:10;10.13;;;2.87;;
6420;SDS011;3243;50.958;7.012;2023-11-19T14:59:37;12.57;;;3.00;;
6420;SDS011;3243;50.958;7.012;2023-11-19T15:02:05;12.27;;;3.20;;
6420;SDS011;3243;50.958;7.012;2023-11-19T15:04:32;12.60;;;3.57;;
6420;SDS011;3243;50.958;7.012;2023-11-19T15:07:00;10.07;;;3.00;;
6420;SDS011;3243;50.958;7.012;2023-11-19T15:09:27;17.53;;;3.57;;
6420;SDS011;3243;50.958;7.012;2023-11-19T15:11:55;18.83;;;3.73;;
6420;SDS011;3243;50.958;7.012;2023-11-19T15:14:23;12.70;;;3.10;;
6420;SDS011;3243;50.958;7.012;2023-11-19T15:16:50;14.93;;;3.53;;
6420;SDS011;3243;50.958;7.012;2023-11-19T15:19:18;10.33;;;2.97;;
6420;SDS011;3243;50.958;7.012;2023-11-19T15:21:46;17.17;;;3.97;;
6420;SDS011;3243;50.958;7.012;2023-11-19T15:24:14;12.23;;;3.40;;
6420;SDS011;3243;50.958;7.012;2023-11-19T15:26:41;13.53;;;4.17;;
6420;SDS011;3243;50.958;7.012;2023-11-19T15:29:08;15.70;;;4.13;;
6420;SDS011;3243;50.958;7.012;2023-11-19T15:31:35;11.73;;;3.30;;
6420;SDS011;3243;50.958;7.012;2023-11-19T15:34:03;12.83;;;2.97;;
6420;SDS011;3243;50.958;7.012;2023-11-19T15:36:30;14.23;;;3.43;;
6420;SDS011;3243;50.958;7.012;2023-11-19T15:38:58;14.60;;;3.37;;
6420;SDS011;3243;50.958;7.012;2023-11-19T15:41:25;11.80;;;3.20;;